createdAt,value
2023-04-26T00:01:58.953Z,3.80
2023-04-26T00:04:26.329Z,4.10
2023-04-26T00:06:53.461Z,4.30
2023-04-26T00:09:20.465Z,3.70
2023-04-26T00:11:47.475Z,4.30
2023-04-26T00:14:14.517Z,3.00
2023-04-26T00:16:41.540Z,4.30
2023-04-26T00:19:09.955Z,4.70
2023-04-26T00:21:37.132Z,4.20
2023-04-26T00:24:05.732Z,3.60
2023-04-26T00:26:34.446Z,3.70
2023-04-26T00:29:02.273Z,3.80
2023-04-26T00:31:29.436Z,4.10
2023-04-26T00:33:56.657Z,4.60
2023-04-26T00:36:23.695Z,4.40
2023-04-26T00:38:50.987Z,4.10
2023-04-26T00:41:18.208Z,4.60
2023-04-26T00:43:45.373Z,3.70
2023-04-26T00:46:12.791Z,4.10
2023-04-26T00:48:39.802Z,5.00
2023-04-26T00:51:07.447Z,4.80
2023-04-26T00:53:35.556Z,4.00
2023-04-26T00:56:03.144Z,3.90
2023-04-26T00:58:30.227Z,3.40
2023-04-26T01:00:57.321Z,4.30
2023-04-26T01:03:24.946Z,4.50
2023-04-26T01:05:52.579Z,4.90
2023-04-26T01:08:21.276Z,4.60
2023-04-26T01:10:51.243Z,3.90
2023-04-26T01:13:18.927Z,4.30
2023-04-26T01:15:47.585Z,4.30
2023-04-26T01:18:15.124Z,4.80
2023-04-26T01:20:43.159Z,4.50
2023-04-26T01:23:11.646Z,4.10
2023-04-26T01:25:38.977Z,4.30
2023-04-26T01:28:06.176Z,4.50
2023-04-26T01:30:33.293Z,4.50
2023-04-26T01:33:03.396Z,4.10
2023-04-26T01:35:30.621Z,3.90
2023-04-26T01:37:57.661Z,4.10
2023-04-26T01:40:24.619Z,4.50
2023-04-26T01:42:51.606Z,5.20
2023-04-26T01:45:18.687Z,4.70
2023-04-26T01:48:04.412Z,4.20
2023-04-26T01:50:32.554Z,4.30
2023-04-26T01:52:59.518Z,4.70
2023-04-26T01:55:26.844Z,4.70
2023-04-26T01:57:53.848Z,4.60
2023-04-26T02:00:20.952Z,4.20
2023-04-26T02:02:49.608Z,3.60
2023-04-26T02:05:16.784Z,4.00
2023-04-26T02:07:43.849Z,4.30
2023-04-26T02:10:10.976Z,4.40
2023-04-26T02:12:38.195Z,4.90
2023-04-26T02:15:06.360Z,4.20
2023-04-26T02:17:34.640Z,3.90
2023-04-26T02:20:01.793Z,3.60
2023-04-26T02:22:29.695Z,4.50
2023-04-26T02:24:56.754Z,5.00
2023-04-26T02:27:27.874Z,4.80
2023-04-26T02:29:54.911Z,4.60
2023-04-26T02:32:22.109Z,4.50
2023-04-26T02:34:49.713Z,3.80
2023-04-26T02:37:16.683Z,4.70
2023-04-26T02:39:43.776Z,4.30
2023-04-26T02:42:11.100Z,4.60
2023-04-26T02:44:40.185Z,4.30
2023-04-26T02:47:07.914Z,4.60
2023-04-26T02:49:35.222Z,4.40
2023-04-26T02:52:02.259Z,4.20
2023-04-26T02:54:29.902Z,4.10
2023-04-26T02:56:58.423Z,4.40
2023-04-26T02:59:25.488Z,4.00
2023-04-26T03:01:52.576Z,4.00
2023-04-26T03:04:19.745Z,4.60
2023-04-26T03:06:46.788Z,4.50
2023-04-26T03:09:14.026Z,4.40
2023-04-26T03:11:41.561Z,4.30
2023-04-26T03:14:08.635Z,3.90
2023-04-26T03:16:41.650Z,4.20
2023-04-26T03:19:08.689Z,3.90
2023-04-26T03:21:36.355Z,3.70
2023-04-26T03:24:04.257Z,3.60
2023-04-26T03:26:31.286Z,3.20
2023-04-26T03:28:58.489Z,3.60
2023-04-26T03:31:25.734Z,3.10
2023-04-26T03:33:52.906Z,3.50
2023-04-26T03:36:20.302Z,3.20
2023-04-26T03:38:47.373Z,3.30
2023-04-26T03:41:14.879Z,3.20
2023-04-26T03:43:41.988Z,3.40
2023-04-26T03:46:09.164Z,3.50
2023-04-26T03:48:36.692Z,2.90
2023-04-26T03:51:04.205Z,3.00
2023-04-26T03:53:31.253Z,3.40
2023-04-26T03:55:58.282Z,3.40
2023-04-26T03:58:26.137Z,3.50
2023-04-26T04:00:56.204Z,2.60
2023-04-26T04:03:23.685Z,3.10
2023-04-26T04:05:52.003Z,3.10
2023-04-26T04:08:19.043Z,3.20
2023-04-26T04:10:46.031Z,3.10
2023-04-26T04:13:13.055Z,3.20
2023-04-26T04:15:40.908Z,2.90
2023-04-26T04:18:08.076Z,3.30
2023-04-26T04:20:35.091Z,3.10
2023-04-26T04:23:04.544Z,2.60
2023-04-26T04:25:32.701Z,3.20
2023-04-26T04:28:03.039Z,3.30
2023-04-26T04:30:30.968Z,3.20
2023-04-26T04:33:00.994Z,3.30
2023-04-26T04:35:33.809Z,2.80
2023-04-26T04:38:03.527Z,2.80
2023-04-26T04:40:30.783Z,2.70
2023-04-26T04:42:58.093Z,3.00
2023-04-26T04:45:27.199Z,2.50
2023-04-26T04:47:56.446Z,2.20
2023-04-26T04:50:23.713Z,2.20
2023-04-26T04:52:50.759Z,2.50
2023-04-26T04:55:17.792Z,2.40
2023-04-26T04:57:45.135Z,2.60
2023-04-26T05:00:13.095Z,2.40
2023-04-26T05:03:02.983Z,2.90
2023-04-26T05:05:31.359Z,2.50
2023-04-26T05:07:58.382Z,2.70
2023-04-26T05:10:26.615Z,2.80
2023-04-26T05:12:53.938Z,2.50
2023-04-26T05:15:21.056Z,2.60
2023-04-26T05:17:48.146Z,2.50
2023-04-26T05:20:21.805Z,2.70
2023-04-26T05:22:49.353Z,2.60
2023-04-26T05:25:17.688Z,2.40
2023-04-26T05:27:48.020Z,2.60
2023-04-26T05:30:47.581Z,2.80
2023-04-26T05:33:33.706Z,3.20
2023-04-26T05:36:15.921Z,3.60
2023-04-26T05:38:42.963Z,3.10
2023-04-26T05:41:09.942Z,3.30
2023-04-26T05:43:37.637Z,3.30
2023-04-26T05:46:05.414Z,3.30
2023-04-26T05:48:32.444Z,3.00
2023-04-26T05:50:59.456Z,3.90
2023-04-26T05:53:26.480Z,3.10
2023-04-26T05:55:53.523Z,3.10
2023-04-26T05:58:20.926Z,2.50
2023-04-26T06:00:48.116Z,3.40
2023-04-26T06:03:15.403Z,3.00
2023-04-26T06:05:42.919Z,3.90
2023-04-26T06:08:10.116Z,3.50
2023-04-26T06:10:37.803Z,3.50
2023-04-26T06:13:05.009Z,2.80
2023-04-26T06:15:34.220Z,2.30
2023-04-26T06:18:01.414Z,2.80
2023-04-26T06:20:28.581Z,2.90
2023-04-26T06:22:55.712Z,2.60
2023-04-26T06:25:22.958Z,2.50
2023-04-26T06:27:50.065Z,2.40
2023-04-26T06:30:17.262Z,2.40
2023-04-26T06:32:47.111Z,2.50
2023-04-26T06:35:14.519Z,2.20
2023-04-26T06:37:42.203Z,2.50
2023-04-26T06:40:11.220Z,2.80
2023-04-26T06:42:38.304Z,2.30
2023-04-26T06:45:32.353Z,2.70
2023-04-26T06:48:02.188Z,2.70
2023-04-26T06:50:29.483Z,2.40
2023-04-26T06:52:56.514Z,2.30
2023-04-26T06:55:24.090Z,2.10
2023-04-26T06:57:51.165Z,1.90
2023-04-26T07:00:18.494Z,1.90
2023-04-26T07:02:46.013Z,2.00
2023-04-26T07:05:13.555Z,2.20
2023-04-26T07:07:41.031Z,2.00
2023-04-26T07:10:09.781Z,2.20
2023-04-26T07:12:36.939Z,2.30
2023-04-26T07:15:06.722Z,2.00
2023-04-26T07:17:33.755Z,2.40
2023-04-26T07:20:01.185Z,2.50
2023-04-26T07:22:28.223Z,2.50
2023-04-26T07:24:55.291Z,2.80
2023-04-26T07:27:22.345Z,2.50
2023-04-26T07:29:49.569Z,2.10
2023-04-26T07:32:16.631Z,2.20
2023-04-26T07:34:43.694Z,2.40
2023-04-26T07:37:10.661Z,2.90
2023-04-26T07:39:37.700Z,2.80
2023-04-26T07:42:04.865Z,2.40
2023-04-26T07:44:31.839Z,2.10
2023-04-26T07:46:58.885Z,2.60
2023-04-26T07:49:25.922Z,2.10
2023-04-26T07:51:53.140Z,1.90
2023-04-26T07:54:20.173Z,3.00
2023-04-26T07:56:47.127Z,2.40
2023-04-26T07:59:14.200Z,1.90
2023-04-26T08:01:41.644Z,2.30
2023-04-26T08:04:08.998Z,2.10
2023-04-26T08:06:36.297Z,1.90
2023-04-26T08:09:05.144Z,1.80
2023-04-26T08:11:32.866Z,1.80
2023-04-26T08:13:59.969Z,2.20
2023-04-26T08:16:27.048Z,2.20
2023-04-26T08:18:54.898Z,2.20
2023-04-26T08:21:21.893Z,2.50
2023-04-26T08:23:48.866Z,2.40
2023-04-26T08:26:15.783Z,2.20
2023-04-26T08:28:42.787Z,2.40
2023-04-26T08:31:10.371Z,2.10
2023-04-26T08:33:37.522Z,2.10
2023-04-26T08:36:05.226Z,2.10
2023-04-26T08:38:32.717Z,2.70
2023-04-26T08:41:02.125Z,2.30
2023-04-26T08:43:29.620Z,2.20
2023-04-26T08:45:56.970Z,2.70
2023-04-26T08:48:23.980Z,2.30
2023-04-26T08:50:51.611Z,2.30
2023-04-26T08:53:18.639Z,2.10
2023-04-26T08:55:49.562Z,2.30
2023-04-26T09:00:47.420Z,2.30
2023-04-26T09:03:14.774Z,2.20
2023-04-26T09:05:45.755Z,2.00
2023-04-26T09:10:45.817Z,3.20
2023-04-26T09:13:13.061Z,2.30
2023-04-26T09:15:40.381Z,2.20
2023-04-26T09:18:20.904Z,2.10
2023-04-26T09:21:02.553Z,2.80
2023-04-26T09:23:29.512Z,3.20
2023-04-26T09:25:56.468Z,2.50
2023-04-26T09:28:24.088Z,2.80
2023-04-26T09:30:51.250Z,3.10
2023-04-26T09:33:19.634Z,2.90
2023-04-26T09:35:46.749Z,2.30
2023-04-26T09:38:15.330Z,2.40
2023-04-26T09:40:46.768Z,2.30
2023-04-26T09:43:16.194Z,2.50
2023-04-26T09:45:53.254Z,2.50
2023-04-26T09:48:23.894Z,2.50
2023-04-26T09:51:09.094Z,2.10
2023-04-26T09:53:46.544Z,2.50
2023-04-26T09:56:19.066Z,2.00
2023-04-26T09:58:58.967Z,1.80
2023-04-26T10:01:27.063Z,2.00
2023-04-26T10:03:54.421Z,2.50
2023-04-26T10:06:21.556Z,1.90
2023-04-26T10:08:48.575Z,1.60
2023-04-26T10:11:15.713Z,1.60
2023-04-26T10:13:43.071Z,2.00
2023-04-26T10:16:10.566Z,2.00
2023-04-26T10:18:37.783Z,1.90
2023-04-26T10:21:31.646Z,2.00
2023-04-26T10:23:59.781Z,2.20
2023-04-26T10:26:53.161Z,1.70
2023-04-26T10:29:20.980Z,1.70
2023-04-26T10:32:06.611Z,1.60
2023-04-26T10:34:34.284Z,2.50
2023-04-26T10:37:14.439Z,2.00
2023-04-26T10:39:46.482Z,1.70
2023-04-26T10:42:27.698Z,1.80
2023-04-26T10:44:56.181Z,1.60
2023-04-26T10:47:31.933Z,1.70
2023-04-26T10:50:05.570Z,2.20
2023-04-26T10:52:33.294Z,1.80
2023-04-26T10:55:00.396Z,1.90
2023-04-26T10:57:51.645Z,1.70
2023-04-26T11:00:21.261Z,1.50
2023-04-26T11:03:04.905Z,1.60
2023-04-26T11:05:37.591Z,1.80
2023-04-26T11:08:18.402Z,1.70
2023-04-26T11:10:50.909Z,1.50
2023-04-26T11:13:18.309Z,1.60
2023-04-26T11:15:46.380Z,1.50
2023-04-26T11:18:13.356Z,1.70
2023-04-26T11:20:40.425Z,1.30
2023-04-26T11:23:07.997Z,1.60
2023-04-26T11:25:34.966Z,1.50
2023-04-26T11:28:02.567Z,1.40
2023-04-26T11:30:33.110Z,1.10
2023-04-26T11:33:00.891Z,1.50
2023-04-26T11:35:29.820Z,1.80
2023-04-26T11:38:00.870Z,1.60
2023-04-26T11:40:30.041Z,1.40
2023-04-26T11:43:15.649Z,1.20
2023-04-26T11:45:42.786Z,1.30
2023-04-26T11:48:10.925Z,1.40
2023-04-26T11:50:38.566Z,1.20
2023-04-26T11:53:06.957Z,1.10
2023-04-26T11:55:34.331Z,1.20
2023-04-26T11:58:03.306Z,1.10
2023-04-26T12:00:30.444Z,1.20
2023-04-26T12:02:58.474Z,1.20
2023-04-26T12:05:27.045Z,1.00
2023-04-26T12:07:55.786Z,1.70
2023-04-26T12:10:34.831Z,1.10
2023-04-26T12:13:01.836Z,1.30
2023-04-26T12:15:33.244Z,1.30
2023-04-26T12:18:11.063Z,1.40
2023-04-26T12:20:40.121Z,1.50
2023-04-26T12:23:07.720Z,1.30
2023-04-26T12:25:36.261Z,1.40
2023-04-26T12:28:12.581Z,1.20
2023-04-26T12:30:40.223Z,1.20
2023-04-26T12:33:16.272Z,1.00
2023-04-26T12:35:44.624Z,1.10
2023-04-26T12:38:12.571Z,1.50
2023-04-26T12:40:39.812Z,1.60
2023-04-26T12:43:06.956Z,1.20
2023-04-26T12:45:34.036Z,1.00
2023-04-26T12:48:01.201Z,1.30
2023-04-26T12:50:28.250Z,0.90
2023-04-26T12:52:55.283Z,1.00
2023-04-26T12:55:22.252Z,3.10
2023-04-26T12:57:49.291Z,9.20
2023-04-26T13:00:17.779Z,6.20
2023-04-26T13:02:44.931Z,2.00
2023-04-26T13:05:12.733Z,1.30
2023-04-26T13:07:42.602Z,1.40
2023-04-26T13:10:12.854Z,1.10
2023-04-26T13:12:40.467Z,2.30
2023-04-26T13:15:08.340Z,2.10
2023-04-26T13:17:36.331Z,1.90
2023-04-26T13:20:04.743Z,2.30
2023-04-26T13:22:31.757Z,1.60
2023-04-26T13:24:58.784Z,2.20
2023-04-26T13:27:25.901Z,1.50
2023-04-26T13:29:53.483Z,1.60
2023-04-26T13:32:20.511Z,1.10
2023-04-26T13:34:47.600Z,1.90
2023-04-26T13:37:14.682Z,1.30
2023-04-26T13:39:41.615Z,1.40
2023-04-26T13:42:08.688Z,1.50
2023-04-26T13:44:35.803Z,1.10
2023-04-26T13:47:02.801Z,1.00
2023-04-26T13:49:29.827Z,1.50
2023-04-26T13:51:56.788Z,1.00
2023-04-26T13:54:25.981Z,1.50
2023-04-26T13:56:53.693Z,1.20
2023-04-26T13:59:20.894Z,1.00
2023-04-26T14:01:47.983Z,1.00
2023-04-26T14:04:15.319Z,1.30
2023-04-26T14:06:42.485Z,1.50
2023-04-26T14:09:09.690Z,1.40
2023-04-26T14:11:36.775Z,1.10
2023-04-26T14:14:03.806Z,1.00
2023-04-26T14:16:30.947Z,1.00
2023-04-26T14:18:58.037Z,1.70
2023-04-26T14:21:25.034Z,1.50
2023-04-26T14:23:51.998Z,1.20
2023-04-26T14:26:20.361Z,1.40
2023-04-26T14:28:48.140Z,1.10
2023-04-26T14:31:17.788Z,1.00
2023-04-26T14:33:44.877Z,1.20
2023-04-26T14:36:12.783Z,1.00
2023-04-26T14:38:43.772Z,1.50
2023-04-26T14:41:15.722Z,0.90
2023-04-26T14:43:43.660Z,1.20
2023-04-26T14:46:10.678Z,1.10
2023-04-26T14:48:37.763Z,1.40
2023-04-26T14:51:04.825Z,0.90
2023-04-26T14:53:31.812Z,1.00
2023-04-26T14:55:58.868Z,1.30
2023-04-26T14:58:26.358Z,1.00
2023-04-26T15:00:53.667Z,1.20
2023-04-26T15:03:20.996Z,2.20
2023-04-26T15:05:48.127Z,1.70
2023-04-26T15:08:15.271Z,2.20
2023-04-26T15:10:42.576Z,5.10
2023-04-26T15:13:09.574Z,2.10
2023-04-26T15:15:36.623Z,1.20
2023-04-26T15:18:03.936Z,1.80
2023-04-26T15:20:31.240Z,1.50
2023-04-26T15:22:58.264Z,1.30
2023-04-26T15:25:25.302Z,2.10
2023-04-26T15:27:52.268Z,2.00
2023-04-26T15:30:19.327Z,2.10
2023-04-26T15:32:50.526Z,3.60
2023-04-26T15:37:44.772Z,1.80
2023-04-26T15:40:12.244Z,1.60
2023-04-26T15:42:39.425Z,1.60
2023-04-26T15:45:07.093Z,1.30
2023-04-26T15:47:35.533Z,1.60
2023-04-26T15:50:03.891Z,1.40
2023-04-26T15:52:36.261Z,1.30
2023-04-26T15:55:07.202Z,1.30
2023-04-26T15:57:34.793Z,1.70
2023-04-26T16:00:02.158Z,1.90
2023-04-26T16:02:31.493Z,2.90
2023-04-26T16:04:58.873Z,3.40
2023-04-26T16:07:26.596Z,3.00
2023-04-26T16:09:53.650Z,2.10
2023-04-26T16:12:20.664Z,2.30
2023-04-26T16:14:48.983Z,3.80
2023-04-26T16:17:16.143Z,2.20
2023-04-26T16:19:43.226Z,2.10
2023-04-26T16:22:10.177Z,2.10
2023-04-26T16:24:37.274Z,1.70
2023-04-26T16:27:04.840Z,2.10
2023-04-26T16:29:31.818Z,2.60
2023-04-26T16:31:58.954Z,1.70
2023-04-26T16:34:26.874Z,2.40
2023-04-26T16:36:53.826Z,1.80
2023-04-26T16:39:21.692Z,2.20
2023-04-26T16:41:48.893Z,1.90
2023-04-26T16:44:16.847Z,1.90
2023-04-26T16:46:43.937Z,2.80
2023-04-26T16:49:11.032Z,2.60
2023-04-26T16:51:38.256Z,2.10
2023-04-26T16:54:05.531Z,2.40
2023-04-26T16:56:32.594Z,2.40
2023-04-26T16:58:59.691Z,2.80
2023-04-26T17:01:26.977Z,2.30
2023-04-26T17:03:54.388Z,2.40
2023-04-26T17:06:21.552Z,2.20
2023-04-26T17:08:48.655Z,2.10
2023-04-26T17:11:16.298Z,1.80
2023-04-26T17:13:43.600Z,2.10
2023-04-26T17:16:10.705Z,1.60
2023-04-26T17:18:37.775Z,1.60
2023-04-26T17:21:05.125Z,2.10
2023-04-26T17:23:33.864Z,2.30
2023-04-26T17:26:01.919Z,3.20
2023-04-26T17:28:29.381Z,2.50
2023-04-26T17:30:56.387Z,2.40
2023-04-26T17:33:23.745Z,2.70
2023-04-26T17:35:50.695Z,4.70
2023-04-26T17:38:17.797Z,3.60
2023-04-26T17:40:44.808Z,3.10
2023-04-26T17:43:11.944Z,2.50
2023-04-26T17:45:38.979Z,16.30
2023-04-26T17:48:10.955Z,9.70
2023-04-26T17:50:38.005Z,9.10
2023-04-26T17:53:06.139Z,7.50
2023-04-26T17:55:33.386Z,6.20
2023-04-26T17:58:00.919Z,5.20
2023-04-26T18:00:28.056Z,4.50
2023-04-26T18:02:56.379Z,6.70
2023-04-26T18:05:24.622Z,4.20
2023-04-26T18:07:51.969Z,3.60
2023-04-26T18:10:19.173Z,2.90
2023-04-26T18:12:46.390Z,2.60
2023-04-26T18:15:14.033Z,2.30
2023-04-26T18:17:41.618Z,2.40
2023-04-26T18:20:09.458Z,3.40
2023-04-26T18:22:36.459Z,2.60
2023-04-26T18:25:04.025Z,2.50
2023-04-26T18:27:31.656Z,3.60
2023-04-26T18:29:58.841Z,3.30
2023-04-26T18:32:26.120Z,2.60
2023-04-26T18:34:53.122Z,3.80
2023-04-26T18:37:20.417Z,2.90
2023-04-26T18:39:48.746Z,3.60
2023-04-26T18:42:15.993Z,2.60
2023-04-26T18:44:43.013Z,3.90
2023-04-26T18:47:10.051Z,4.10
2023-04-26T18:49:37.145Z,3.60
2023-04-26T18:52:04.565Z,3.40
2023-04-26T18:54:33.198Z,3.30
2023-04-26T18:57:01.318Z,2.50
2023-04-26T18:59:30.372Z,2.80
2023-04-26T19:01:57.487Z,3.90
2023-04-26T19:04:24.722Z,4.30
2023-04-26T19:06:51.950Z,3.30
2023-04-26T19:09:18.927Z,2.80
2023-04-26T19:11:46.412Z,2.70
2023-04-26T19:14:13.493Z,2.40
2023-04-26T19:16:40.568Z,2.60
2023-04-26T19:19:07.554Z,2.60
2023-04-26T19:21:35.258Z,2.40
2023-04-26T19:24:02.294Z,2.30
2023-04-26T19:26:29.283Z,2.60
2023-04-26T19:28:56.359Z,2.60
2023-04-26T19:31:23.440Z,2.60
2023-04-26T19:33:50.544Z,3.00
2023-04-26T19:36:17.606Z,2.90
2023-04-26T19:38:44.738Z,2.60
2023-04-26T19:41:11.761Z,2.50
2023-04-26T19:43:38.803Z,2.50
2023-04-26T19:46:13.111Z,2.40
2023-04-26T19:48:41.123Z,2.00
2023-04-26T19:51:08.115Z,2.40
2023-04-26T19:53:35.411Z,2.10
2023-04-26T19:56:03.246Z,2.00
2023-04-26T19:58:30.333Z,2.90
2023-04-26T20:00:57.392Z,2.10
2023-04-26T20:03:24.711Z,1.90
2023-04-26T20:05:51.834Z,2.10
2023-04-26T20:08:19.281Z,2.50
2023-04-26T20:10:46.277Z,3.10
2023-04-26T20:13:13.313Z,3.50
2023-04-26T20:15:40.337Z,3.50
2023-04-26T20:18:07.474Z,3.60
2023-04-26T20:20:34.525Z,3.20
2023-04-26T20:23:03.169Z,4.10
2023-04-26T20:25:30.231Z,5.00
2023-04-26T20:27:57.423Z,5.30
2023-04-26T20:30:24.584Z,7.30
2023-04-26T20:32:51.607Z,9.40
2023-04-26T20:35:18.626Z,10.50
2023-04-26T20:37:45.923Z,11.30
2023-04-26T20:40:13.092Z,11.80
2023-04-26T20:42:40.146Z,10.50
2023-04-26T20:45:07.659Z,10.70
2023-04-26T20:47:34.678Z,11.30
2023-04-26T20:50:01.680Z,11.50
2023-04-26T20:52:28.699Z,11.80
2023-04-26T20:54:57.346Z,12.90
2023-04-26T20:57:24.562Z,12.10
2023-04-26T20:59:51.526Z,11.50
2023-04-26T21:04:43.540Z,10.70
2023-04-26T21:07:10.788Z,10.50
2023-04-26T21:09:38.040Z,9.90
2023-04-26T21:12:05.775Z,8.90
2023-04-26T21:14:33.019Z,8.60
2023-04-26T21:17:01.679Z,6.90
2023-04-26T21:19:28.798Z,7.00
2023-04-26T21:21:57.495Z,6.40
2023-04-26T21:24:24.565Z,6.40
2023-04-26T21:26:51.676Z,5.10
2023-04-26T21:29:18.827Z,5.10
2023-04-26T21:31:46.192Z,6.00
2023-04-26T21:34:13.576Z,5.40
2023-04-26T21:36:40.712Z,5.40
2023-04-26T21:39:07.998Z,4.60
2023-04-26T21:41:35.297Z,4.40
2023-04-26T21:44:02.543Z,4.50
2023-04-26T21:46:29.921Z,4.20
2023-04-26T21:48:57.152Z,3.50
2023-04-26T21:51:24.811Z,3.70
2023-04-26T21:53:51.936Z,3.70
2023-04-26T21:56:19.154Z,3.10
2023-04-26T21:58:46.570Z,3.50
2023-04-26T22:01:14.915Z,2.70
2023-04-26T22:03:42.165Z,3.30
2023-04-26T22:06:09.835Z,3.10
2023-04-26T22:08:37.014Z,2.60
2023-04-26T22:11:04.282Z,3.50
2023-04-26T22:13:31.533Z,2.90
2023-04-26T22:15:58.745Z,2.90
2023-04-26T22:18:29.541Z,3.20
2023-04-26T22:20:56.764Z,3.00
2023-04-26T22:23:23.933Z,2.80
2023-04-26T22:25:51.094Z,3.00
2023-04-26T22:28:18.218Z,3.10
2023-04-26T22:30:45.357Z,3.20
2023-04-26T22:33:12.595Z,3.40
2023-04-26T22:35:39.870Z,3.00
2023-04-26T22:38:07.136Z,2.60
2023-04-26T22:40:34.395Z,3.40
2023-04-26T22:43:02.079Z,3.80
2023-04-26T22:45:29.193Z,3.40
2023-04-26T22:47:56.359Z,3.60
2023-04-26T22:50:23.844Z,3.00
2023-04-26T22:52:51.294Z,3.70
2023-04-26T22:55:18.542Z,3.20
2023-04-26T22:57:46.792Z,3.20
2023-04-26T23:00:14.837Z,3.60
2023-04-26T23:02:42.096Z,3.60
2023-04-26T23:05:12.712Z,3.70
2023-04-26T23:07:40.241Z,3.70
2023-04-26T23:10:08.106Z,3.40
2023-04-26T23:12:36.377Z,4.20
2023-04-26T23:15:05.354Z,4.00
2023-04-26T23:17:34.380Z,4.40
2023-04-26T23:20:01.691Z,4.30
2023-04-26T23:22:28.772Z,3.60
2023-04-26T23:24:56.170Z,4.20
2023-04-26T23:27:25.076Z,4.40
2023-04-26T23:29:52.253Z,5.00
2023-04-26T23:32:19.473Z,4.50
2023-04-26T23:34:46.725Z,4.00
2023-04-26T23:37:13.867Z,3.80
2023-04-26T23:39:41.233Z,5.20
2023-04-26T23:42:08.304Z,4.40
2023-04-26T23:44:35.520Z,4.90
2023-04-26T23:47:02.694Z,5.10
2023-04-26T23:49:29.820Z,4.30
2023-04-26T23:51:57.035Z,4.20
2023-04-26T23:54:24.229Z,4.40
2023-04-26T23:56:51.480Z,4.40
2023-04-26T23:59:18.630Z,4.80
